createdAt,value
2023-02-11T00:00:48.779Z,25.60
2023-02-11T00:03:27.064Z,25.60
2023-02-11T00:06:16.393Z,25.20
2023-02-11T00:09:05.530Z,26.40
2023-02-11T00:11:54.280Z,26.10
2023-02-11T00:14:42.955Z,27.60
2023-02-11T00:17:32.402Z,26.40
2023-02-11T00:20:07.903Z,27.70
2023-02-11T00:22:56.852Z,27.20
2023-02-11T00:25:46.039Z,28.70
2023-02-11T00:28:34.708Z,27.20
2023-02-11T00:31:24.355Z,29.00
2023-02-11T00:34:13.819Z,29.40
2023-02-11T00:37:02.725Z,29.60
2023-02-11T00:39:51.367Z,29.50
2023-02-11T00:42:40.321Z,29.10
2023-02-11T00:45:30.029Z,28.40
2023-02-11T00:48:18.735Z,25.50
2023-02-11T00:51:07.724Z,26.90
2023-02-11T00:53:56.299Z,27.90
2023-02-11T00:56:44.916Z,28.10
2023-02-11T00:59:33.494Z,27.60
2023-02-11T01:02:22.166Z,26.00
2023-02-11T01:05:11.233Z,28.00
2023-02-11T01:07:59.877Z,28.20
2023-02-11T01:10:55.682Z,22.90
2023-02-11T01:13:44.895Z,24.00
2023-02-11T01:16:16.424Z,23.40
2023-02-11T01:19:05.132Z,21.70
2023-02-11T01:21:53.771Z,21.50
2023-02-11T01:24:42.362Z,17.30
2023-02-11T01:27:31.013Z,24.90
2023-02-11T01:30:19.760Z,23.40
2023-02-11T01:33:08.429Z,25.60
2023-02-11T01:36:02.335Z,27.80
2023-02-11T01:38:50.949Z,23.40
2023-02-11T01:41:39.937Z,24.60
2023-02-11T01:44:30.377Z,24.10
2023-02-11T01:47:19.635Z,24.30
2023-02-11T01:50:08.587Z,23.50
2023-02-11T01:53:18.513Z,23.40
2023-02-11T01:56:26.300Z,22.40
2023-02-11T01:59:20.352Z,21.70
2023-02-11T02:05:06.785Z,19.30
2023-02-11T02:08:05.180Z,21.00
2023-02-11T02:10:55.776Z,20.30
2023-02-11T02:13:35.760Z,23.00
2023-02-11T02:16:30.364Z,22.60
2023-02-11T02:20:21.945Z,20.90
2023-02-11T02:23:35.264Z,23.20
2023-02-11T02:26:59.265Z,21.10
2023-02-11T02:30:22.578Z,23.30
2023-02-11T02:33:45.460Z,21.40
2023-02-11T02:36:44.161Z,20.80
2023-02-11T02:39:36.067Z,21.60
2023-02-11T02:42:26.320Z,17.00
2023-02-11T02:45:00.458Z,17.40
2023-02-11T02:47:49.205Z,17.00
2023-02-11T02:50:38.502Z,18.80
2023-02-11T02:53:40.244Z,20.20
2023-02-11T02:56:32.010Z,20.10
2023-02-11T02:59:35.477Z,21.30
2023-02-11T03:02:31.698Z,21.10
2023-02-11T03:05:30.341Z,20.20
2023-02-11T03:08:26.633Z,21.30
2023-02-11T03:11:19.076Z,20.00
2023-02-11T03:14:10.969Z,20.20
2023-02-11T03:16:48.713Z,21.10
2023-02-11T03:19:26.623Z,20.50
2023-02-11T03:22:20.825Z,19.50
2023-02-11T03:25:10.012Z,23.60
2023-02-11T03:27:43.890Z,22.70
2023-02-11T03:33:28.538Z,18.90
2023-02-11T03:36:23.686Z,19.40
2023-02-11T03:39:15.828Z,20.60
2023-02-11T03:42:06.819Z,19.60
2023-02-11T03:45:03.710Z,17.70
2023-02-11T03:47:56.434Z,19.20
2023-02-11T03:50:47.089Z,19.00
2023-02-11T03:53:38.483Z,18.00
2023-02-11T03:56:31.709Z,18.70
2023-02-11T03:59:20.795Z,18.10
2023-02-11T04:02:09.602Z,20.20
2023-02-11T04:04:58.814Z,18.80
2023-02-11T04:07:47.429Z,17.60
2023-02-11T04:10:36.059Z,19.20
2023-02-11T04:13:26.371Z,19.50
2023-02-11T04:16:15.053Z,19.60
2023-02-11T04:19:03.903Z,20.30
2023-02-11T04:21:52.512Z,18.70
2023-02-11T04:24:43.272Z,19.90
2023-02-11T04:27:32.428Z,20.30
2023-02-11T04:30:21.585Z,21.00
2023-02-11T04:33:10.276Z,20.20
2023-02-11T04:35:58.947Z,21.10
2023-02-11T04:38:47.746Z,20.50
2023-02-11T04:41:36.408Z,17.90
2023-02-11T04:44:25.322Z,19.70
2023-02-11T04:47:15.062Z,18.80
2023-02-11T04:50:03.921Z,19.10
2023-02-11T04:52:52.584Z,19.70
2023-02-11T04:55:41.204Z,20.50
2023-02-11T04:58:30.092Z,19.30
2023-02-11T05:01:18.853Z,21.40
2023-02-11T05:04:07.627Z,20.30
2023-02-11T05:06:58.576Z,18.70
2023-02-11T05:09:47.318Z,18.50
2023-02-11T05:12:35.900Z,19.00
2023-02-11T05:15:24.584Z,21.00
2023-02-11T05:18:14.214Z,19.70
2023-02-11T05:21:07.809Z,18.40
2023-02-11T05:23:56.553Z,17.50
2023-02-11T05:26:45.118Z,17.10
2023-02-11T05:29:33.716Z,18.00
2023-02-11T05:32:22.313Z,17.70
2023-02-11T05:35:10.913Z,14.30
2023-02-11T05:37:59.555Z,15.60
2023-02-11T05:40:48.173Z,15.40
2023-02-11T05:43:37.261Z,16.80
2023-02-11T05:46:25.899Z,16.00
2023-02-11T05:49:15.740Z,15.10
2023-02-11T05:52:04.924Z,15.80
2023-02-11T05:54:53.568Z,14.30
2023-02-11T05:57:42.206Z,15.10
2023-02-11T06:00:30.921Z,12.80
2023-02-11T06:03:03.560Z,14.20
2023-02-11T06:05:52.430Z,13.30
2023-02-11T06:08:42.257Z,14.40
2023-02-11T06:11:30.878Z,14.80
2023-02-11T06:14:19.626Z,15.80
2023-02-11T06:17:08.266Z,14.60
2023-02-11T06:19:56.948Z,14.00
2023-02-11T06:22:45.772Z,13.70
2023-02-11T06:25:34.449Z,13.90
2023-02-11T06:28:23.197Z,14.40
2023-02-11T06:31:07.246Z,14.20
2023-02-11T06:33:55.948Z,14.30
2023-02-11T06:36:24.596Z,9.90
2023-02-11T06:39:13.907Z,13.60
2023-02-11T06:41:42.294Z,14.80
2023-02-11T06:44:31.299Z,15.00
2023-02-11T06:47:20.017Z,13.60
2023-02-11T06:49:57.456Z,15.60
2023-02-11T06:52:46.174Z,15.40
2023-02-11T06:55:36.018Z,13.70
2023-02-11T06:58:24.700Z,13.50
2023-02-11T07:00:53.309Z,15.50
2023-02-11T07:03:44.386Z,13.30
2023-02-11T07:06:33.357Z,14.40
2023-02-11T07:09:10.962Z,13.40
2023-02-11T07:11:59.830Z,13.60
2023-02-11T07:14:37.388Z,13.40
2023-02-11T07:17:26.527Z,15.50
2023-02-11T07:20:16.344Z,15.10
2023-02-11T07:23:05.165Z,15.20
2023-02-11T07:25:53.851Z,14.70
2023-02-11T07:28:31.843Z,13.80
2023-02-11T07:31:22.891Z,14.80
2023-02-11T07:34:11.590Z,14.70
2023-02-11T07:37:00.629Z,14.50
2023-02-11T07:39:49.380Z,13.80
2023-02-11T07:42:39.946Z,14.20
2023-02-11T07:45:28.552Z,13.60
2023-02-11T07:48:17.234Z,14.90
2023-02-11T07:51:10.982Z,15.20
2023-02-11T07:54:00.952Z,14.70
2023-02-11T07:56:49.596Z,14.90
2023-02-11T07:59:38.293Z,15.30
2023-02-11T08:02:27.250Z,15.20
2023-02-11T08:05:00.928Z,16.90
2023-02-11T08:07:53.094Z,16.50
2023-02-11T08:10:41.736Z,17.60
2023-02-11T08:13:30.407Z,18.10
2023-02-11T08:16:20.570Z,18.20
2023-02-11T08:18:50.282Z,17.40
2023-02-11T08:21:39.868Z,17.70
2023-02-11T08:24:28.508Z,16.40
2023-02-11T08:27:17.213Z,15.90
2023-02-11T08:30:08.252Z,17.00
2023-02-11T08:32:56.869Z,16.50
2023-02-11T08:35:45.503Z,16.00
2023-02-11T08:38:34.143Z,17.30
2023-02-11T08:41:22.921Z,16.50
2023-02-11T08:44:12.340Z,17.60
2023-02-11T08:47:00.935Z,17.30
2023-02-11T08:49:49.511Z,15.30
2023-02-11T08:52:38.112Z,17.60
2023-02-11T08:55:26.740Z,17.40
2023-02-11T08:58:16.990Z,17.90
2023-02-11T09:01:11.877Z,17.50
2023-02-11T09:04:00.777Z,18.30
2023-02-11T09:06:49.376Z,18.80
2023-02-11T09:09:37.998Z,17.90
2023-02-11T09:12:26.647Z,17.20
2023-02-11T09:15:15.260Z,18.90
2023-02-11T09:18:05.053Z,17.00
2023-02-11T09:20:53.774Z,16.60
2023-02-11T09:23:44.131Z,17.30
2023-02-11T09:26:34.312Z,15.80
2023-02-11T09:29:23.227Z,17.20
2023-02-11T09:32:12.015Z,17.00
2023-02-11T09:35:00.741Z,16.30
2023-02-11T09:37:49.346Z,17.30
2023-02-11T09:40:43.545Z,17.50
2023-02-11T09:46:27.129Z,16.00
2023-02-11T09:49:21.563Z,16.90
2023-02-11T09:52:23.218Z,16.80
2023-02-11T09:55:20.922Z,16.70
2023-02-11T09:58:14.141Z,17.60
2023-02-11T10:01:13.903Z,18.40
2023-02-11T10:04:07.107Z,18.60
2023-02-11T10:07:01.372Z,18.40
2023-02-11T10:09:57.258Z,15.70
2023-02-11T10:13:00.808Z,18.40
2023-02-11T10:15:57.488Z,16.80
2023-02-11T10:19:21.936Z,18.10
2023-02-11T10:22:19.144Z,17.40
2023-02-11T10:25:20.146Z,17.70
2023-02-11T10:28:14.665Z,16.90
2023-02-11T10:31:07.972Z,18.70
2023-02-11T10:34:02.480Z,18.70
2023-02-11T10:36:33.581Z,17.80
2023-02-11T10:39:23.832Z,17.50
2023-02-11T10:42:14.330Z,18.30
2023-02-11T10:45:00.187Z,17.40
2023-02-11T10:47:48.932Z,18.80
2023-02-11T10:50:37.689Z,18.00
2023-02-11T10:53:26.472Z,18.10
2023-02-11T10:56:24.165Z,17.90
2023-02-11T10:59:21.678Z,17.90
2023-02-11T11:02:23.058Z,18.40
2023-02-11T11:05:19.642Z,17.40
2023-02-11T11:08:09.329Z,16.80
2023-02-11T11:10:43.160Z,17.40
2023-02-11T11:13:33.840Z,17.50
2023-02-11T11:16:25.325Z,15.60
2023-02-11T11:19:22.244Z,16.40
2023-02-11T11:22:21.773Z,16.70
2023-02-11T11:25:23.604Z,18.50
2023-02-11T11:28:22.237Z,19.80
2023-02-11T11:31:17.360Z,17.60
2023-02-11T11:34:20.543Z,16.60
2023-02-11T11:37:13.454Z,18.80
2023-02-11T11:40:11.072Z,17.60
2023-02-11T11:43:21.316Z,17.90
2023-02-11T11:46:30.075Z,18.30
2023-02-11T11:49:27.701Z,18.00
2023-02-11T11:52:26.225Z,19.30
2023-02-11T11:55:20.586Z,18.20
2023-02-11T11:58:15.522Z,17.90
2023-02-11T12:01:21.230Z,16.50
2023-02-11T12:04:40.203Z,16.00
2023-02-11T12:07:46.010Z,17.60
2023-02-11T12:10:54.700Z,17.90
2023-02-11T12:14:00.536Z,16.90
2023-02-11T12:16:58.324Z,17.00
2023-02-11T12:20:17.406Z,18.10
2023-02-11T12:23:24.236Z,16.90
2023-02-11T12:26:17.540Z,18.10
2023-02-11T12:29:15.673Z,18.60
2023-02-11T12:32:15.442Z,18.70
2023-02-11T12:35:06.748Z,18.50
2023-02-11T12:38:19.667Z,18.80
2023-02-11T12:41:42.673Z,48.70
2023-02-11T12:44:40.509Z,20.70
2023-02-11T12:47:41.236Z,18.80
2023-02-11T12:50:29.733Z,17.00
2023-02-11T12:53:31.243Z,17.70
2023-02-11T12:56:26.510Z,17.60
2023-02-11T12:59:02.924Z,18.20
2023-02-11T13:01:53.609Z,20.00
2023-02-11T13:04:49.813Z,20.60
2023-02-11T13:07:43.560Z,21.60
2023-02-11T13:10:35.880Z,21.70
2023-02-11T13:13:30.099Z,19.90
2023-02-11T13:19:21.481Z,20.70
2023-02-11T13:22:17.199Z,20.50
2023-02-11T13:25:16.903Z,19.80
2023-02-11T13:28:20.204Z,20.10
2023-02-11T13:31:12.270Z,18.60
2023-02-11T13:34:01.149Z,19.00
2023-02-11T13:36:56.616Z,21.10
2023-02-11T13:39:57.031Z,22.90
2023-02-11T13:42:51.718Z,13.90
2023-02-11T13:45:47.048Z,24.50
2023-02-11T13:48:38.291Z,18.40
2023-02-11T13:51:39.030Z,18.10
2023-02-11T13:54:23.342Z,19.50
2023-02-11T13:57:37.563Z,18.40
2023-02-11T14:00:52.382Z,18.20
2023-02-11T14:04:37.358Z,19.10
2023-02-11T14:07:47.594Z,18.60
2023-02-11T14:10:54.120Z,19.80
2023-02-11T14:13:27.298Z,20.50
2023-02-11T14:16:31.654Z,19.70
2023-02-11T14:19:32.043Z,18.40
2023-02-11T14:22:26.312Z,21.00
2023-02-11T14:25:22.659Z,21.00
2023-02-11T14:28:22.356Z,22.90
2023-02-11T14:31:03.391Z,20.70
2023-02-11T14:34:17.230Z,18.40
2023-02-11T14:37:22.339Z,20.40
2023-02-11T14:40:23.054Z,19.90
2023-02-11T14:43:09.426Z,17.60
2023-02-11T14:46:07.413Z,17.70
2023-02-11T14:49:02.156Z,19.10
2023-02-11T14:51:53.754Z,20.20
2023-02-11T14:54:44.700Z,21.10
2023-02-11T14:57:33.476Z,21.50
2023-02-11T15:00:23.597Z,20.80
2023-02-11T15:03:26.716Z,22.10
2023-02-11T15:06:19.741Z,22.40
2023-02-11T15:09:17.763Z,23.10
2023-02-11T15:12:17.315Z,22.60
2023-02-11T15:15:12.387Z,20.30
2023-02-11T15:18:04.414Z,21.90
2023-02-11T15:20:53.946Z,22.90
2023-02-11T15:24:01.579Z,23.30
2023-02-11T15:26:30.489Z,21.50
2023-02-11T15:29:19.172Z,23.00
2023-02-11T15:32:14.746Z,20.70
2023-02-11T15:35:04.769Z,18.80
2023-02-11T15:37:53.755Z,19.00
2023-02-11T15:40:53.688Z,20.80
2023-02-11T15:43:22.633Z,20.70
2023-02-11T15:46:16.173Z,22.20
2023-02-11T15:49:05.808Z,23.30
2023-02-11T15:51:56.856Z,23.90
2023-02-11T15:54:47.894Z,23.60
2023-02-11T15:57:36.737Z,23.30
2023-02-11T16:00:31.851Z,25.70
2023-02-11T16:03:00.558Z,24.10
2023-02-11T16:05:49.416Z,23.60
2023-02-11T16:08:32.164Z,24.20
2023-02-11T16:11:26.322Z,24.70
2023-02-11T16:14:01.642Z,25.50
2023-02-11T16:16:53.695Z,27.00
2023-02-11T16:19:46.006Z,20.30
2023-02-11T16:22:37.510Z,22.40
2023-02-11T16:25:26.384Z,23.20
2023-02-11T16:28:17.139Z,21.60
2023-02-11T16:30:51.265Z,23.50
2023-02-11T16:33:20.655Z,23.40
2023-02-11T16:36:13.577Z,24.40
2023-02-11T16:38:47.469Z,25.80
2023-02-11T16:41:36.630Z,32.20
2023-02-11T16:44:25.483Z,34.10
2023-02-11T16:47:20.268Z,31.30
2023-02-11T16:50:11.989Z,28.70
2023-02-11T16:53:01.685Z,27.60
2023-02-11T16:55:34.929Z,28.10
2023-02-11T16:58:23.759Z,25.40
2023-02-11T17:01:14.094Z,26.50
2023-02-11T17:04:03.262Z,28.50
2023-02-11T17:06:41.793Z,29.90
2023-02-11T17:09:20.002Z,26.90
2023-02-11T17:12:08.942Z,26.50
2023-02-11T17:17:30.447Z,27.80
2023-02-11T17:20:02.235Z,26.70
2023-02-11T17:22:30.855Z,27.10
2023-02-11T17:25:19.756Z,27.70
2023-02-11T17:28:09.580Z,27.60
2023-02-11T17:30:58.535Z,31.80
2023-02-11T17:33:37.790Z,29.00
2023-02-11T17:36:27.166Z,33.20
2023-02-11T17:39:16.019Z,34.60
2023-02-11T17:42:05.767Z,33.60
2023-02-11T17:44:34.701Z,33.20
2023-02-11T17:47:23.455Z,34.00
2023-02-11T17:50:12.459Z,33.50
2023-02-11T17:53:01.388Z,33.70
2023-02-11T17:55:50.694Z,34.80
2023-02-11T17:58:19.462Z,36.60
2023-02-11T18:01:08.273Z,35.40
2023-02-11T18:03:57.136Z,36.70
2023-02-11T18:06:46.367Z,30.30
2023-02-11T18:09:38.541Z,30.60
2023-02-11T18:12:27.507Z,29.80
2023-02-11T18:15:16.817Z,31.20
2023-02-11T18:17:45.412Z,30.10
2023-02-11T18:20:14.567Z,27.90
2023-02-11T18:22:43.544Z,30.90
2023-02-11T18:25:14.653Z,32.70
2023-02-11T18:27:46.176Z,32.80
2023-02-11T18:30:20.031Z,33.30
2023-02-11T18:32:52.555Z,32.10
2023-02-11T18:35:29.933Z,31.50
2023-02-11T18:38:04.264Z,33.60
2023-02-11T18:40:45.922Z,32.50
2023-02-11T18:43:34.614Z,29.30
2023-02-11T18:46:23.224Z,30.10
2023-02-11T18:49:12.602Z,28.20
2023-02-11T18:52:01.347Z,27.90
2023-02-11T18:54:51.869Z,26.20
2023-02-11T18:57:40.723Z,24.80
2023-02-11T19:00:30.414Z,26.30
2023-02-11T19:03:19.393Z,23.70
2023-02-11T19:06:14.963Z,24.00
2023-02-11T19:09:07.198Z,25.20
2023-02-11T19:11:57.381Z,22.90
2023-02-11T19:14:46.362Z,21.20
2023-02-11T19:17:20.096Z,22.70
2023-02-11T19:20:10.732Z,23.20
2023-02-11T19:22:59.864Z,22.30
2023-02-11T19:25:48.769Z,22.50
2023-02-11T19:28:39.552Z,23.80
2023-02-11T19:31:31.790Z,23.30
2023-02-11T19:34:21.684Z,23.80
2023-02-11T19:37:12.065Z,25.00
2023-02-11T19:40:00.698Z,23.30
2023-02-11T19:42:49.300Z,25.20
2023-02-11T19:45:38.448Z,24.80
2023-02-11T19:48:27.427Z,20.00
2023-02-11T19:51:17.649Z,19.90
2023-02-11T19:54:07.785Z,23.10
2023-02-11T19:56:56.781Z,20.90
2023-02-11T19:59:45.372Z,20.70
2023-02-11T20:02:34.244Z,20.50
2023-02-11T20:05:23.207Z,21.60
2023-02-11T20:08:11.828Z,20.00
2023-02-11T20:11:06.987Z,20.20
2023-02-11T20:16:16.033Z,19.60
2023-02-11T20:18:49.210Z,18.30
2023-02-11T20:21:38.704Z,18.50
2023-02-11T20:24:27.607Z,19.90
2023-02-11T20:27:19.056Z,16.60
2023-02-11T20:30:11.267Z,16.20
2023-02-11T20:33:00.180Z,13.00
2023-02-11T20:35:55.954Z,13.70
2023-02-11T20:38:47.520Z,13.40
2023-02-11T20:41:32.059Z,11.80
2023-02-11T20:44:21.861Z,12.60
2023-02-11T20:47:11.612Z,18.50
2023-02-11T20:50:00.362Z,19.60
2023-02-11T20:52:48.922Z,20.20
2023-02-11T20:55:39.003Z,13.90
2023-02-11T20:58:27.596Z,13.40
2023-02-11T21:01:19.842Z,12.00
2023-02-11T21:04:12.170Z,13.50
2023-02-11T21:07:02.125Z,14.20
2023-02-11T21:09:50.726Z,12.60
2023-02-11T21:12:39.353Z,13.70
2023-02-11T21:15:28.146Z,14.70
2023-02-11T21:18:17.019Z,16.20
2023-02-11T21:21:07.111Z,13.40
2023-02-11T21:23:44.632Z,13.00
2023-02-11T21:26:34.653Z,10.50
2023-02-11T21:29:23.368Z,12.80
2023-02-11T21:32:12.051Z,17.00
2023-02-11T21:35:02.402Z,25.80
2023-02-11T21:37:51.168Z,18.90
2023-02-11T21:40:40.015Z,14.50
2023-02-11T21:43:28.622Z,15.30
2023-02-11T21:46:19.098Z,16.00
2023-02-11T21:49:07.986Z,16.20
2023-02-11T21:51:56.631Z,14.80
2023-02-11T21:54:34.505Z,14.50
2023-02-11T21:57:23.382Z,16.60
2023-02-11T22:00:15.555Z,16.60
2023-02-11T22:03:04.649Z,16.30
2023-02-11T22:05:43.627Z,15.40
2023-02-11T22:08:32.264Z,17.10
2023-02-11T22:11:21.498Z,16.00
2023-02-11T22:14:10.058Z,12.80
2023-02-11T22:16:50.140Z,14.50
2023-02-11T22:19:38.966Z,14.70
2023-02-11T22:22:28.531Z,12.90
2023-02-11T22:25:17.729Z,17.50
2023-02-11T22:28:06.387Z,28.50
2023-02-11T22:30:56.002Z,22.70
2023-02-11T22:33:28.326Z,17.20
2023-02-11T22:36:19.774Z,16.90
2023-02-11T22:39:11.746Z,16.40
2023-02-11T22:42:00.391Z,15.00
2023-02-11T22:44:49.029Z,18.20
2023-02-11T22:47:38.235Z,16.10
2023-02-11T22:50:26.944Z,16.50
2023-02-11T22:53:15.594Z,16.20
2023-02-11T22:56:06.682Z,15.30
2023-02-11T22:58:58.488Z,16.00
2023-02-11T23:01:47.941Z,17.10
2023-02-11T23:04:36.614Z,16.50
2023-02-11T23:07:25.279Z,14.40
2023-02-11T23:10:13.791Z,15.70
2023-02-11T23:13:03.241Z,14.80
2023-02-11T23:15:51.844Z,14.20
2023-02-11T23:18:42.029Z,19.30
2023-02-11T23:21:22.943Z,30.00
2023-02-11T23:24:14.056Z,55.00
2023-02-11T23:27:02.920Z,48.90
2023-02-11T23:29:54.907Z,21.20
2023-02-11T23:32:43.510Z,16.50
2023-02-11T23:35:32.104Z,16.60
2023-02-11T23:38:20.797Z,16.10
2023-02-11T23:41:10.163Z,16.60
2023-02-11T23:43:58.868Z,16.00
2023-02-11T23:46:47.434Z,15.70
2023-02-11T23:49:36.072Z,16.80
2023-02-11T23:52:24.696Z,16.20
2023-02-11T23:55:13.278Z,16.10
2023-02-11T23:58:01.845Z,13.80
